Time;durP1;ratioP1;P1;durP2;ratioP2;P2;SDS_P1;SDS_P2;PMS_P1;PMS_P2;Temp;Humidity;BMP_temperature;BMP_pressure;BME280_temperature;BME280_humidity;BME280_pressure;Samples;Min_cycle;Max_cycle;Signal;HPM_P1;HPM_P2
2022/12/01 00:02:24;;;;;;;;;;;;;;;;;;5034376;28;19923;-76
2022/12/01 00:05:11;;;;;;;;;;;;;;;;;;5035994;28;19921;-76
2022/12/01 00:07:58;;;;;;;;;;;;;;;;;;5018297;28;19924;-77
2022/12/01 00:10:45;;;;;;;;;;;;;;;;;;5024165;28;19913;-77
2022/12/01 00:13:32;;;;;;;;;;;;;;;;;;5038935;28;20319;-77
2022/12/01 00:16:18;;;;;;;;;;;;;;;;;;5043753;28;19916;-77
2022/12/01 00:19:04;;;;;;;;;;;;;;;;;;5037510;28;19939;-77
2022/12/01 00:21:51;;;;;;;;;;;;;;;;;;5033796;28;19928;-77
2022/12/01 00:24:38;;;;;;;;;;;;;;;;;;5040667;28;20375;-77
2022/12/01 00:27:24;;;;;;;;;;;;;;;;;;5030573;28;19924;-78
2022/12/01 00:30:11;;;;;;;;;;;;;;;;;;5035875;28;20376;-77
2022/12/01 00:32:57;;;;;;;;;;;;;;;;;;5032811;28;19916;-77
2022/12/01 00:35:44;;;;;;;;;;;;;;;;;;5029228;28;19909;-77
2022/12/01 00:38:30;;;;;;;;;;;;;;;;;;5029184;28;19925;-76
2022/12/01 00:41:17;;;;;;;;;;;;;;;;;;5045728;28;19917;-76
2022/12/01 00:44:03;;;;;;;;;;;;;;;;;;5033836;28;19924;-78
2022/12/01 00:47:02;;;;;;;;;;;;;;;;;;5036015;28;19916;-77
2022/12/01 00:49:50;;;;;;;;;;;;;;;;;;5038883;28;20337;-75
2022/12/01 00:52:37;;;;;;;;;;;;;;;;;;5039731;28;19921;-75
2022/12/01 00:55:23;;;;;;;;;;;;;;;;;;5034032;28;19961;-77
2022/12/01 00:58:10;;;;;;;;;;;;;;;;;;5032814;28;19929;-77
2022/12/01 01:00:57;;;;;;;;;;;;;;;;;;5042119;28;19917;-77
2022/12/01 01:03:43;;;;;;;;;;;;;;;;;;5022839;28;19916;-78
2022/12/01 01:06:30;;;;;;;;;;;;;;;;;;5041115;28;19917;-77
2022/12/01 01:09:16;;;;;;;;;;;;;;;;;;5041487;28;19936;-78
2022/12/01 01:12:03;;;;;;;;;;;;;;;;;;5035428;28;19919;-78
2022/12/01 01:14:49;;;;;;;;;;;;;;;;;;5034431;28;20296;-77
2022/12/01 01:17:35;;;;;;;;;;;;;;;;;;5034617;28;19917;-77
2022/12/01 01:20:22;;;;;;;;;;;;;;;;;;5033840;28;19928;-78
2022/12/01 01:23:08;;;;;;;;;;;;;;;;;;5032004;28;19913;-77
2022/12/01 01:25:55;;;;;;;;;;;;;;;;;;5034221;28;19917;-78
2022/12/01 01:28:41;;;;;;;;;;;;;;;;;;5044639;28;20680;-77
2022/12/01 01:31:28;;;;;;;;;;;;;;;;;;5036421;28;19909;-78
2022/12/01 01:34:14;;;;;;;;;;;;;;;;;;5039536;28;20357;-78
2022/12/01 01:37:01;;;;;;;;;;;;;;;;;;5030484;28;19913;-78
2022/12/01 01:39:47;;;;;;;;;;;;;;;;;;5027719;28;19928;-78
2022/12/01 01:42:34;;;;;;;;;;;;;;;;;;5037546;28;19917;-78
2022/12/01 01:45:21;;;;;;;;;;;;;;;;;;5041120;28;19917;-77
2022/12/01 01:48:07;;;;;;;;;;;;;;;;;;5041212;28;19927;-77
2022/12/01 01:50:53;;;;;;;;;;;;;;;;;;5030979;28;20283;-77
2022/12/01 01:53:40;;;;;;;;;;;;;;;;;;5033244;28;19917;-76
2022/12/01 01:56:26;;;;;;;;;;;;;;;;;;5044471;28;19921;-76
2022/12/01 01:59:13;;;;;;;;;;;;;;;;;;5018313;28;19921;-76
2022/12/01 02:01:59;;;;;;;;;;;;;;;;;;5040655;28;19923;-75
2022/12/01 02:04:46;;;;;;;;;;;;;;;;;;5042022;28;19921;-76
2022/12/01 02:07:32;;;;;;;;;;;;;;;;;;5041513;28;19924;-77
2022/12/01 02:10:21;;;;;;;;;;;;;;;;;;5037761;28;19916;-77
2022/12/01 02:13:07;;;;;;;;;;;;;;;;;;5041371;28;19924;-77
2022/12/01 02:15:54;;;;;;;;;;;;;;;;;;5032294;28;19917;-76
2022/12/01 02:18:40;;;;;;;;;;;;;;;;;;5036720;28;19928;-77
2022/12/01 02:21:27;;;;;;;;;;;;;;;;;;5031714;28;19925;-77
2022/12/01 02:24:13;;;;;;;;;;;;;;;;;;5040732;28;19923;-77
2022/12/01 02:27:00;;;;;;;;;;;;;;;;;;5043815;28;19923;-76
2022/12/01 02:29:46;;;;;;;;;;;;;;;;;;5041890;28;20562;-78
2022/12/01 02:32:33;;;;;;;;;;;;;;;;;;5040640;28;19913;-75
2022/12/01 02:35:19;;;;;;;;;;;;;;;;;;5028202;28;20621;-76
2022/12/01 02:38:06;;;;;;;;;;;;;;;;;;5031179;28;19928;-77
2022/12/01 02:40:52;;;;;;;;;;;;;;;;;;5038226;28;20368;-75
2022/12/01 02:43:39;;;;;;;;;;;;;;;;;;5032669;28;19917;-75
2022/12/01 02:46:25;;;;;;;;;;;;;;;;;;5042040;28;19924;-78
2022/12/01 02:49:11;;;;;;;;;;;;;;;;;;5047786;28;19923;-79
2022/12/01 02:51:58;;;;;;;;;;;;;;;;;;5029155;28;19917;-78
2022/12/01 02:54:44;;;;;;;;;;;;;;;;;;5035966;28;20388;-77
2022/12/01 02:57:31;;;;;;;;;;;;;;;;;;5041262;28;19912;-77
2022/12/01 03:00:17;;;;;;;;;;;;;;;;;;5041515;28;20236;-77
2022/12/01 03:03:04;;;;;;;;;;;;;;;;;;5033127;28;19921;-76
2022/12/01 03:05:50;;;;;;;;;;;;;;;;;;5034414;28;19913;-76
2022/12/01 03:08:43;;;;;;;;;;;;;;;;;;5036637;28;19920;-76
2022/12/01 03:11:30;;;;;;;;;;;;;;;;;;5044741;28;19939;-78
2022/12/01 03:14:16;;;;;;;;;;;;;;;;;;5037894;28;19921;-76
2022/12/01 03:17:03;;;;;;;;;;;;;;;;;;5038725;28;19919;-77
2022/12/01 03:19:49;;;;;;;;;;;;;;;;;;5036290;28;19932;-76
2022/12/01 03:22:36;;;;;;;;;;;;;;;;;;5036034;28;19909;-77
2022/12/01 03:25:22;;;;;;;;;;;;;;;;;;5027759;28;19916;-75
2022/12/01 03:28:09;;;;;;;;;;;;;;;;;;5020290;28;19909;-77
2022/12/01 03:30:55;;;;;;;;;;;;;;;;;;5038075;28;19913;-77
2022/12/01 03:33:42;;;;;;;;;;;;;;;;;;5042920;28;19913;-77
2022/12/01 03:36:28;;;;;;;;;;;;;;;;;;5039260;28;20284;-77
2022/12/01 03:39:14;;;;;;;;;;;;;;;;;;5040430;28;19947;-76
2022/12/01 03:42:01;;;;;;;;;;;;;;;;;;5043859;28;20302;-76
2022/12/01 03:44:47;;;;;;;;;;;;;;;;;;5043518;28;19933;-77
2022/12/01 03:47:36;;;;;;;;;;;;;;;;;;5034711;28;19916;-76
2022/12/01 03:50:22;;;;;;;;;;;;;;;;;;5038004;28;19913;-76
2022/12/01 03:53:09;;;;;;;;;;;;;;;;;;5041918;28;19916;-76
2022/12/01 03:55:55;;;;;;;;;;;;;;;;;;5045876;28;20379;-77
2022/12/01 03:58:42;;;;;;;;;;;;;;;;;;5044847;28;19925;-78
2022/12/01 04:01:30;;;;;;;;;;;;;;;;;;5028202;28;20282;-77
2022/12/01 04:04:17;;;;;;;;;;;;;;;;;;5039448;28;19919;-76
2022/12/01 04:07:03;;;;;;;;;;;;;;;;;;5038893;28;20012;-76
2022/12/01 04:09:50;;;;;;;;;;;;;;;;;;5037201;28;19924;-75
2022/12/01 04:12:36;;;;;;;;;;;;;;;;;;5036911;28;19923;-75
2022/12/01 04:15:23;;;;;;;;;;;;;;;;;;5019856;28;19919;-76
2022/12/01 04:18:09;;;;;;;;;;;;;;;;;;5018620;28;20303;-76
2022/12/01 04:20:55;;;;;;;;;;;;;;;;;;5046303;28;19928;-77
2022/12/01 04:24:00;;;;;;;;;;;;;;;;;;5036273;28;19913;-77
2022/12/01 04:26:47;;;;;;;;;;;;;;;;;;5044781;28;19912;-77
2022/12/01 04:29:33;;;;;;;;;;;;;;;;;;5031418;28;19917;-77
2022/12/01 04:32:20;;;;;;;;;;;;;;;;;;5035034;28;19924;-76
2022/12/01 04:35:06;;;;;;;;;;;;;;;;;;5045820;28;20202;-76
2022/12/01 04:37:53;;;;;;;;;;;;;;;;;;5041611;28;21802;-77
2022/12/01 04:40:39;;;;;;;;;;;;;;;;;;5039492;28;19913;-77
2022/12/01 04:43:26;;;;;;;;;;;;;;;;;;5040270;28;19947;-77
2022/12/01 04:46:12;;;;;;;;;;;;;;;;;;5040979;28;19923;-77
2022/12/01 04:48:59;;;;;;;;;;;;;;;;;;5040110;28;19913;-77
2022/12/01 04:51:45;;;;;;;;;;;;;;;;;;5039916;28;19925;-78
2022/12/01 04:54:32;;;;;;;;;;;;;;;;;;5038404;28;19917;-79
2022/12/01 04:57:18;;;;;;;;;;;;;;;;;;5041515;28;19913;-79
2022/12/01 05:00:11;;;;;;;;;;;;;;;;;;5041547;28;20370;-76
2022/12/01 05:02:58;;;;;;;;;;;;;;;;;;5039019;28;19913;-78
2022/12/01 05:05:44;;;;;;;;;;;;;;;;;;5038952;28;19985;-79
2022/12/01 05:08:31;;;;;;;;;;;;;;;;;;5037078;28;19920;-79
2022/12/01 05:11:17;;;;;;;;;;;;;;;;;;5039224;28;19925;-78
2022/12/01 05:14:04;;;;;;;;;;;;;;;;;;5039877;28;19920;-78
2022/12/01 05:16:50;;;;;;;;;;;;;;;;;;5040950;28;20392;-77
2022/12/01 05:22:42;;;;;;;;;;;;;;;;;;5039653;28;19913;-77
2022/12/01 05:25:29;;;;;;;;;;;;;;;;;;5043493;28;19920;-76
2022/12/01 05:28:15;;;;;;;;;;;;;;;;;;5037217;28;19920;-76
2022/12/01 05:31:02;;;;;;;;;;;;;;;;;;5031857;28;19913;-76
2022/12/01 05:33:48;;;;;;;;;;;;;;;;;;5034153;28;19917;-76
2022/12/01 05:36:35;;;;;;;;;;;;;;;;;;5035224;28;20467;-76
2022/12/01 05:39:21;;;;;;;;;;;;;;;;;;5022609;28;20007;-76
2022/12/01 05:42:08;;;;;;;;;;;;;;;;;;5044649;28;19920;-75
2022/12/01 05:44:54;;;;;;;;;;;;;;;;;;5029823;28;20272;-76
2022/12/01 05:47:41;;;;;;;;;;;;;;;;;;5030543;28;19909;-76
2022/12/01 05:50:27;;;;;;;;;;;;;;;;;;5036394;28;20261;-76
2022/12/01 05:53:14;;;;;;;;;;;;;;;;;;5043412;28;20293;-76
2022/12/01 05:56:00;;;;;;;;;;;;;;;;;;5031497;28;19917;-75
2022/12/01 05:58:47;;;;;;;;;;;;;;;;;;5030140;28;19921;-75
2022/12/01 06:01:33;;;;;;;;;;;;;;;;;;5035880;28;20268;-75
2022/12/01 06:04:19;;;;;;;;;;;;;;;;;;5042133;28;19917;-76
2022/12/01 06:07:06;;;;;;;;;;;;;;;;;;5044654;28;19924;-77
2022/12/01 06:09:52;;;;;;;;;;;;;;;;;;5044559;28;20359;-75
2022/12/01 06:12:39;;;;;;;;;;;;;;;;;;5044569;28;19913;-79
2022/12/01 06:15:25;;;;;;;;;;;;;;;;;;5045396;28;19916;-78
2022/12/01 06:18:12;;;;;;;;;;;;;;;;;;5044464;28;19921;-77
2022/12/01 06:20:58;;;;;;;;;;;;;;;;;;5030027;28;19921;-79
2022/12/01 06:23:45;;;;;;;;;;;;;;;;;;5029911;28;19921;-78
2022/12/01 06:26:34;;;;;;;;;;;;;;;;;;5038911;28;19915;-77
2022/12/01 06:29:20;;;;;;;;;;;;;;;;;;5025370;28;19916;-79
2022/12/01 06:32:07;;;;;;;;;;;;;;;;;;5043370;28;19941;-78
2022/12/01 06:34:53;;;;;;;;;;;;;;;;;;5032576;28;19920;-79
2022/12/01 06:37:40;;;;;;;;;;;;;;;;;;5033277;28;20015;-77
2022/12/01 06:40:26;;;;;;;;;;;;;;;;;;5041418;28;20485;-77
2022/12/01 06:43:13;;;;;;;;;;;;;;;;;;5045757;28;19916;-78
2022/12/01 06:45:59;;;;;;;;;;;;;;;;;;5042631;28;20364;-76
2022/12/01 06:48:46;;;;;;;;;;;;;;;;;;5038715;28;19917;-77
2022/12/01 06:51:33;;;;;;;;;;;;;;;;;;5045059;28;20295;-78
2022/12/01 06:54:20;;;;;;;;;;;;;;;;;;5046275;28;19909;-78
2022/12/01 06:57:06;;;;;;;;;;;;;;;;;;5046399;28;20477;-78
2022/12/01 06:59:53;;;;;;;;;;;;;;;;;;5042171;28;19927;-80
2022/12/01 07:02:39;;;;;;;;;;;;;;;;;;5033419;28;19913;-79
2022/12/01 07:05:26;;;;;;;;;;;;;;;;;;5028119;28;19942;-80
2022/12/01 07:08:12;;;;;;;;;;;;;;;;;;5046860;28;19913;-80
2022/12/01 07:10:59;;;;;;;;;;;;;;;;;;5044978;28;19932;-79
2022/12/01 07:13:45;;;;;;;;;;;;;;;;;;5034616;28;20319;-80
2022/12/01 07:16:32;;;;;;;;;;;;;;;;;;5031359;28;19913;-78
2022/12/01 07:19:18;;;;;;;;;;;;;;;;;;5042549;28;19921;-78
2022/12/01 07:22:05;;;;;;;;;;;;;;;;;;5030353;28;19921;-80
2022/12/01 07:24:51;;;;;;;;;;;;;;;;;;5023676;28;19924;-79
2022/12/01 07:27:38;;;;;;;;;;;;;;;;;;5043774;28;19916;-83
2022/12/01 07:30:24;;;;;;;;;;;;;;;;;;5035291;28;19963;-81
2022/12/01 07:33:10;;;;;;;;;;;;;;;;;;5039694;28;19920;-82
2022/12/01 07:35:57;;;;;;;;;;;;;;;;;;5049730;28;20399;-81
2022/12/01 07:38:43;;;;;;;;;;;;;;;;;;5035749;28;19924;-81
2022/12/01 07:41:30;;;;;;;;;;;;;;;;;;5028667;28;20491;-82
2022/12/01 07:44:17;;;;;;;;;;;;;;;;;;5058589;28;19913;-82
2022/12/01 07:47:09;;;;;;;;;;;;;;;;;;5041075;28;19916;-82
2022/12/01 07:49:55;;;;;;;;;;;;;;;;;;5039490;28;19912;-82
2022/12/01 07:52:41;;;;;;;;;;;;;;;;;;5033749;28;19910;-82
2022/12/01 07:55:28;;;;;;;;;;;;;;;;;;5039710;28;19924;-82
2022/12/01 07:58:14;;;;;;;;;;;;;;;;;;5031843;28;20513;-81
2022/12/01 08:01:01;;;;;;;;;;;;;;;;;;5038760;28;19915;-80
2022/12/01 08:03:47;;;;;;;;;;;;;;;;;;5040077;28;20372;-80
2022/12/01 08:06:34;;;;;;;;;;;;;;;;;;5051655;28;19909;-83
2022/12/01 08:09:20;;;;;;;;;;;;;;;;;;5036059;28;19939;-82
2022/12/01 08:12:07;;;;;;;;;;;;;;;;;;5056224;28;19912;-80
2022/12/01 08:14:54;;;;;;;;;;;;;;;;;;5042240;28;19913;-79
2022/12/01 08:17:40;;;;;;;;;;;;;;;;;;5041495;28;19917;-81
2022/12/01 08:20:26;;;;;;;;;;;;;;;;;;5034568;28;19960;-81
2022/12/01 08:23:13;;;;;;;;;;;;;;;;;;5044075;28;20550;-81
2022/12/01 08:25:59;;;;;;;;;;;;;;;;;;5042129;28;19909;-81
2022/12/01 08:28:46;;;;;;;;;;;;;;;;;;5042909;28;19921;-81
2022/12/01 08:31:34;;;;;;;;;;;;;;;;;;5040508;28;19916;-81
2022/12/01 08:34:20;;;;;;;;;;;;;;;;;;5041302;28;20525;-81
2022/12/01 08:37:07;;;;;;;;;;;;;;;;;;5040816;28;19913;-81
2022/12/01 08:39:53;;;;;;;;;;;;;;;;;;5021708;28;20290;-80
2022/12/01 08:42:40;;;;;;;;;;;;;;;;;;5036904;28;19924;-81
2022/12/01 08:45:26;;;;;;;;;;;;;;;;;;5031828;28;20387;-80
2022/12/01 08:48:13;;;;;;;;;;;;;;;;;;5044599;28;19928;-80
2022/12/01 08:50:59;;;;;;;;;;;;;;;;;;5042636;28;19912;-81
2022/12/01 08:53:46;;;;;;;;;;;;;;;;;;5038359;28;19916;-80
2022/12/01 08:56:32;;;;;;;;;;;;;;;;;;5036096;28;19913;-81
2022/12/01 08:59:19;;;;;;;;;;;;;;;;;;5038659;28;19940;-81
2022/12/01 09:02:05;;;;;;;;;;;;;;;;;;5043066;28;19919;-81
2022/12/01 09:04:52;;;;;;;;;;;;;;;;;;5046603;28;19938;-81
2022/12/01 09:07:39;;;;;;;;;;;;;;;;;;5031789;28;19924;-81
2022/12/01 09:10:26;;;;;;;;;;;;;;;;;;5040628;28;19935;-80
2022/12/01 09:13:12;;;;;;;;;;;;;;;;;;5051261;28;20364;-82
2022/12/01 09:15:59;;;;;;;;;;;;;;;;;;5046200;28;19919;-81
2022/12/01 09:18:45;;;;;;;;;;;;;;;;;;5038984;28;19921;-80
2022/12/01 09:21:38;;;;;;;;;;;;;;;;;;5045943;28;19931;-79
2022/12/01 09:24:24;;;;;;;;;;;;;;;;;;5038521;28;20629;-81
2022/12/01 09:27:12;;;;;;;;;;;;;;;;;;5044460;28;19913;-81
2022/12/01 09:29:58;;;;;;;;;;;;;;;;;;5036954;28;20341;-81
2022/12/01 09:32:44;;;;;;;;;;;;;;;;;;5039278;28;19913;-80
2022/12/01 09:35:31;;;;;;;;;;;;;;;;;;5042516;28;20611;-81
2022/12/01 09:38:17;;;;;;;;;;;;;;;;;;5049933;28;19936;-82
2022/12/01 09:41:04;;;;;;;;;;;;;;;;;;5039523;28;19913;-80
2022/12/01 09:43:50;;;;;;;;;;;;;;;;;;5046605;28;19917;-80
2022/12/01 09:46:37;;;;;;;;;;;;;;;;;;5037927;28;19913;-81
2022/12/01 09:49:23;;;;;;;;;;;;;;;;;;5034347;28;19914;-80
2022/12/01 09:52:10;;;;;;;;;;;;;;;;;;5043741;28;19939;-79
2022/12/01 09:54:56;;;;;;;;;;;;;;;;;;5052093;28;19920;-80
2022/12/01 09:57:43;;;;;;;;;;;;;;;;;;5048843;28;20380;-82
2022/12/01 10:00:29;;;;;;;;;;;;;;;;;;5027754;28;19923;-81
2022/12/01 10:03:16;;;;;;;;;;;;;;;;;;5046663;28;20380;-81
2022/12/01 10:06:02;;;;;;;;;;;;;;;;;;5045962;28;20388;-80
2022/12/01 10:08:49;;;;;;;;;;;;;;;;;;5032312;28;19915;-81
2022/12/01 10:11:35;;;;;;;;;;;;;;;;;;5042855;28;20838;-79
2022/12/01 10:14:22;;;;;;;;;;;;;;;;;;5032471;28;19923;-80
2022/12/01 10:17:08;;;;;;;;;;;;;;;;;;5040009;28;20285;-81
2022/12/01 10:19:55;;;;;;;;;;;;;;;;;;5046433;28;19924;-81
2022/12/01 10:22:41;;;;;;;;;;;;;;;;;;5039225;28;19910;-80
2022/12/01 10:25:28;;;;;;;;;;;;;;;;;;5049746;28;19919;-81
2022/12/01 10:28:14;;;;;;;;;;;;;;;;;;5038964;28;19987;-79
2022/12/01 10:31:01;;;;;;;;;;;;;;;;;;5042452;28;19931;-80
2022/12/01 10:33:48;;;;;;;;;;;;;;;;;;5046211;28;19909;-80
2022/12/01 10:36:34;;;;;;;;;;;;;;;;;;5039734;28;20104;-80
2022/12/01 10:39:22;;;;;;;;;;;;;;;;;;5036451;28;19939;-81
2022/12/01 10:42:09;;;;;;;;;;;;;;;;;;5046157;28;19920;-81
2022/12/01 10:44:55;;;;;;;;;;;;;;;;;;5039228;28;20292;-80
2022/12/01 10:47:42;;;;;;;;;;;;;;;;;;5037786;28;19959;-82
2022/12/01 10:50:28;;;;;;;;;;;;;;;;;;5042592;28;19919;-81
2022/12/01 10:53:14;;;;;;;;;;;;;;;;;;5043721;28;19925;-80
2022/12/01 10:56:01;;;;;;;;;;;;;;;;;;5041327;28;20283;-80
2022/12/01 10:58:47;;;;;;;;;;;;;;;;;;5049412;28;19924;-80
2022/12/01 11:01:35;;;;;;;;;;;;;;;;;;5029599;28;19924;-79
2022/12/01 11:04:21;;;;;;;;;;;;;;;;;;5044900;28;19909;-80
2022/12/01 11:07:08;;;;;;;;;;;;;;;;;;5034329;28;19916;-79
2022/12/01 11:09:54;;;;;;;;;;;;;;;;;;5033948;28;20470;-80
2022/12/01 11:12:40;;;;;;;;;;;;;;;;;;5045347;28;19917;-80
2022/12/01 11:15:27;;;;;;;;;;;;;;;;;;5035315;28;19928;-79
2022/12/01 11:18:13;;;;;;;;;;;;;;;;;;5030819;28;19920;-80
2022/12/01 11:21:00;;;;;;;;;;;;;;;;;;5031564;28;19931;-78
2022/12/01 11:23:46;;;;;;;;;;;;;;;;;;5046493;28;20546;-80
2022/12/01 11:26:33;;;;;;;;;;;;;;;;;;5040844;28;19913;-79
2022/12/01 11:29:24;;;;;;;;;;;;;;;;;;5044321;28;20235;-78
2022/12/01 11:32:10;;;;;;;;;;;;;;;;;;5040044;28;19919;-79
2022/12/01 11:34:57;;;;;;;;;;;;;;;;;;5041974;28;19913;-78
2022/12/01 11:37:43;;;;;;;;;;;;;;;;;;5038585;28;19908;-79
2022/12/01 11:40:29;;;;;;;;;;;;;;;;;;5040278;28;19931;-79
2022/12/01 11:43:16;;;;;;;;;;;;;;;;;;5032200;28;19917;-81
2022/12/01 11:46:02;;;;;;;;;;;;;;;;;;5040316;28;20022;-79
2022/12/01 11:48:49;;;;;;;;;;;;;;;;;;5039118;28;20356;-78
2022/12/01 11:51:36;;;;;;;;;;;;;;;;;;5047996;28;19920;-80
2022/12/01 11:54:22;;;;;;;;;;;;;;;;;;5044978;28;19913;-79
2022/12/01 11:57:09;;;;;;;;;;;;;;;;;;5037414;28;19915;-79
2022/12/01 11:59:55;;;;;;;;;;;;;;;;;;5045080;28;19920;-80
2022/12/01 12:02:42;;;;;;;;;;;;;;;;;;5044764;28;20287;-80
2022/12/01 12:05:28;;;;;;;;;;;;;;;;;;5044499;28;19943;-80
2022/12/01 12:08:15;;;;;;;;;;;;;;;;;;5046608;28;19920;-78
2022/12/01 12:11:01;;;;;;;;;;;;;;;;;;5040054;28;19919;-79
2022/12/01 12:13:48;;;;;;;;;;;;;;;;;;5042435;28;19941;-80
2022/12/01 12:16:34;;;;;;;;;;;;;;;;;;5047411;28;19916;-80
2022/12/01 12:19:21;;;;;;;;;;;;;;;;;;5048757;28;19923;-79
2022/12/01 12:22:10;;;;;;;;;;;;;;;;;;5060897;28;19921;-82
2022/12/01 12:24:56;;;;;;;;;;;;;;;;;;5064892;28;19913;-81
2022/12/01 12:27:43;;;;;;;;;;;;;;;;;;5054184;28;19909;-79
2022/12/01 12:30:30;;;;;;;;;;;;;;;;;;5054593;28;20295;-79
2022/12/01 12:33:16;;;;;;;;;;;;;;;;;;5045243;28;19909;-80
2022/12/01 12:36:03;;;;;;;;;;;;;;;;;;5049715;28;19916;-80
2022/12/01 12:38:49;;;;;;;;;;;;;;;;;;5054352;28;19927;-79
2022/12/01 12:41:35;;;;;;;;;;;;;;;;;;5058260;28;19927;-80
2022/12/01 12:44:22;;;;;;;;;;;;;;;;;;5052040;28;19917;-80
2022/12/01 12:47:08;;;;;;;;;;;;;;;;;;5051701;28;19913;-79
2022/12/01 12:49:55;;;;;;;;;;;;;;;;;;5039108;28;19908;-79
2022/12/01 12:52:41;;;;;;;;;;;;;;;;;;5039538;28;19910;-80
2022/12/01 12:55:28;;;;;;;;;;;;;;;;;;5041924;28;19920;-80
2022/12/01 12:58:14;;;;;;;;;;;;;;;;;;5041547;28;19913;-79
2022/12/01 13:01:01;;;;;;;;;;;;;;;;;;5021665;28;20548;-80
2022/12/01 13:03:47;;;;;;;;;;;;;;;;;;5032822;28;20305;-79
2022/12/01 13:06:34;;;;;;;;;;;;;;;;;;5028312;28;19908;-79
2022/12/01 13:09:20;;;;;;;;;;;;;;;;;;5030136;28;19924;-80
2022/12/01 13:12:07;;;;;;;;;;;;;;;;;;5049032;28;19913;-80
2022/12/01 13:14:53;;;;;;;;;;;;;;;;;;5043269;28;19923;-79
2022/12/01 13:17:40;;;;;;;;;;;;;;;;;;5045877;28;19909;-79
2022/12/01 13:20:26;;;;;;;;;;;;;;;;;;5041263;28;19921;-80
2022/12/01 13:23:13;;;;;;;;;;;;;;;;;;5044201;28;19909;-81
2022/12/01 13:26:00;;;;;;;;;;;;;;;;;;5041598;28;19913;-80
2022/12/01 13:28:46;;;;;;;;;;;;;;;;;;5039266;28;19913;-81
2022/12/01 13:31:32;;;;;;;;;;;;;;;;;;5031559;28;19917;-81
2022/12/01 13:34:19;;;;;;;;;;;;;;;;;;5044666;28;20004;-81
2022/12/01 13:37:05;;;;;;;;;;;;;;;;;;5045774;28;19909;-79
2022/12/01 13:39:52;;;;;;;;;;;;;;;;;;5042303;28;19921;-81
2022/12/01 13:42:38;;;;;;;;;;;;;;;;;;5035158;28;19924;-79
2022/12/01 13:45:25;;;;;;;;;;;;;;;;;;5039400;28;19915;-80
2022/12/01 13:48:11;;;;;;;;;;;;;;;;;;5044920;28;20288;-81
2022/12/01 13:50:58;;;;;;;;;;;;;;;;;;5034422;28;19921;-79
2022/12/01 13:53:44;;;;;;;;;;;;;;;;;;5029807;28;19916;-80
2022/12/01 13:56:31;;;;;;;;;;;;;;;;;;5040491;28;19917;-80
2022/12/01 13:59:17;;;;;;;;;;;;;;;;;;5042160;28;19925;-79
2022/12/01 14:02:04;;;;;;;;;;;;;;;;;;5030291;28;20307;-79
2022/12/01 14:04:50;;;;;;;;;;;;;;;;;;5047297;28;19924;-79
2022/12/01 14:07:37;;;;;;;;;;;;;;;;;;5050816;28;19920;-80
2022/12/01 14:10:23;;;;;;;;;;;;;;;;;;5047324;28;20383;-79
2022/12/01 14:13:10;;;;;;;;;;;;;;;;;;5049784;28;20443;-80
2022/12/01 14:15:59;;;;;;;;;;;;;;;;;;5047350;28;19913;-80
2022/12/01 14:18:45;;;;;;;;;;;;;;;;;;5033697;28;19916;-82
2022/12/01 14:21:32;;;;;;;;;;;;;;;;;;5031035;28;19936;-83
2022/12/01 14:24:18;;;;;;;;;;;;;;;;;;5047445;28;19935;-81
2022/12/01 14:27:05;;;;;;;;;;;;;;;;;;5047578;28;20000;-82
2022/12/01 14:29:51;;;;;;;;;;;;;;;;;;5045503;28;19960;-80
2022/12/01 14:32:38;;;;;;;;;;;;;;;;;;5048858;28;20375;-78
2022/12/01 14:35:24;;;;;;;;;;;;;;;;;;5039893;28;19959;-79
2022/12/01 14:38:14;;;;;;;;;;;;;;;;;;5045203;28;19913;-77
2022/12/01 14:41:00;;;;;;;;;;;;;;;;;;5047442;28;19921;-80
2022/12/01 14:44:05;;;;;;;;;;;;;;;;;;5045133;28;19908;-79
2022/12/01 14:46:51;;;;;;;;;;;;;;;;;;5055856;28;20253;-79
2022/12/01 14:49:38;;;;;;;;;;;;;;;;;;5043318;28;19921;-79
2022/12/01 14:52:24;;;;;;;;;;;;;;;;;;5044816;28;19929;-77
2022/12/01 14:55:11;;;;;;;;;;;;;;;;;;5040837;28;19917;-78
2022/12/01 14:57:58;;;;;;;;;;;;;;;;;;5045378;28;19923;-77
2022/12/01 15:00:45;;;;;;;;;;;;;;;;;;5025369;28;19959;-79
2022/12/01 15:03:31;;;;;;;;;;;;;;;;;;5036521;28;19917;-80
2022/12/01 15:06:18;;;;;;;;;;;;;;;;;;5032050;28;19913;-80
2022/12/01 15:09:04;;;;;;;;;;;;;;;;;;5034268;28;19915;-81
2022/12/01 15:11:51;;;;;;;;;;;;;;;;;;5020951;28;19917;-81
2022/12/01 15:14:37;;;;;;;;;;;;;;;;;;5040143;28;19920;-80
2022/12/01 15:17:24;;;;;;;;;;;;;;;;;;5034490;28;19913;-79
2022/12/01 15:20:10;;;;;;;;;;;;;;;;;;5041721;28;20508;-79
2022/12/01 15:22:57;;;;;;;;;;;;;;;;;;5043166;28;19916;-79
2022/12/01 15:25:43;;;;;;;;;;;;;;;;;;5043448;28;19923;-79
2022/12/01 15:28:30;;;;;;;;;;;;;;;;;;5040182;28;19979;-79
2022/12/01 15:31:17;;;;;;;;;;;;;;;;;;5051045;28;19920;-79
2022/12/01 15:34:03;;;;;;;;;;;;;;;;;;5047370;28;19927;-79
2022/12/01 15:36:50;;;;;;;;;;;;;;;;;;5042178;28;19913;-80
2022/12/01 15:39:36;;;;;;;;;;;;;;;;;;5043423;28;19936;-79
2022/12/01 15:42:23;;;;;;;;;;;;;;;;;;5026983;28;19916;-80
2022/12/01 15:45:12;;;;;;;;;;;;;;;;;;5029328;28;19919;-80
2022/12/01 15:47:58;;;;;;;;;;;;;;;;;;5042416;28;19920;-79
2022/12/01 15:50:45;;;;;;;;;;;;;;;;;;5038351;28;19916;-80
2022/12/01 15:53:34;;;;;;;;;;;;;;;;;;5041243;28;19920;-79
2022/12/01 15:56:20;;;;;;;;;;;;;;;;;;5043772;28;19924;-80
2022/12/01 15:59:08;;;;;;;;;;;;;;;;;;5044617;28;19923;-82
2022/12/01 16:01:55;;;;;;;;;;;;;;;;;;5040608;28;19920;-82
2022/12/01 16:04:42;;;;;;;;;;;;;;;;;;5042994;28;19917;-80
2022/12/01 16:07:28;;;;;;;;;;;;;;;;;;5038409;28;19928;-79
2022/12/01 16:10:15;;;;;;;;;;;;;;;;;;5048118;28;19913;-80
2022/12/01 16:13:01;;;;;;;;;;;;;;;;;;5043144;28;19923;-80
2022/12/01 16:15:47;;;;;;;;;;;;;;;;;;5027077;28;19923;-80
2022/12/01 16:18:34;;;;;;;;;;;;;;;;;;5044713;28;19917;-80
2022/12/01 16:21:21;;;;;;;;;;;;;;;;;;5044291;28;19925;-79
2022/12/01 16:24:07;;;;;;;;;;;;;;;;;;5050363;28;20549;-81
2022/12/01 16:26:54;;;;;;;;;;;;;;;;;;5044918;28;19923;-81
2022/12/01 16:29:40;;;;;;;;;;;;;;;;;;5030313;28;19920;-81
2022/12/01 16:32:27;;;;;;;;;;;;;;;;;;5037239;28;19939;-81
2022/12/01 16:35:13;;;;;;;;;;;;;;;;;;5031296;28;19920;-80
2022/12/01 16:38:00;;;;;;;;;;;;;;;;;;5030104;28;19909;-81
2022/12/01 16:40:47;;;;;;;;;;;;;;;;;;5034109;28;19930;-81
2022/12/01 16:43:33;;;;;;;;;;;;;;;;;;5042705;28;19908;-79
2022/12/01 16:46:20;;;;;;;;;;;;;;;;;;5028107;28;19913;-82
2022/12/01 16:49:06;;;;;;;;;;;;;;;;;;5035669;28;19909;-80
2022/12/01 16:51:53;;;;;;;;;;;;;;;;;;5042481;28;20360;-80
2022/12/01 16:54:39;;;;;;;;;;;;;;;;;;5038337;28;19913;-81
2022/12/01 16:57:26;;;;;;;;;;;;;;;;;;5040195;28;19913;-79
2022/12/01 17:00:12;;;;;;;;;;;;;;;;;;5034804;28;19925;-79
2022/12/01 17:02:59;;;;;;;;;;;;;;;;;;5043018;28;19923;-81
2022/12/01 17:05:45;;;;;;;;;;;;;;;;;;5041172;28;19923;-80
2022/12/01 17:08:31;;;;;;;;;;;;;;;;;;5041416;28;19924;-80
2022/12/01 17:11:18;;;;;;;;;;;;;;;;;;5044817;28;20390;-80
2022/12/01 17:14:05;;;;;;;;;;;;;;;;;;5027437;28;20563;-81
2022/12/01 17:16:51;;;;;;;;;;;;;;;;;;5042406;28;19920;-79
2022/12/01 17:19:37;;;;;;;;;;;;;;;;;;5042985;28;19935;-80
2022/12/01 17:22:24;;;;;;;;;;;;;;;;;;5045703;28;19943;-81
2022/12/01 17:25:16;;;;;;;;;;;;;;;;;;5043795;28;19917;-81
2022/12/01 17:28:02;;;;;;;;;;;;;;;;;;5046479;28;19917;-82
2022/12/01 17:30:49;;;;;;;;;;;;;;;;;;5036148;28;19917;-81
2022/12/01 17:33:35;;;;;;;;;;;;;;;;;;5047810;28;20397;-80
2022/12/01 17:36:22;;;;;;;;;;;;;;;;;;5048997;28;19939;-81
2022/12/01 17:39:08;;;;;;;;;;;;;;;;;;5051148;28;19921;-80
2022/12/01 17:41:55;;;;;;;;;;;;;;;;;;5048379;28;19916;-79
2022/12/01 17:44:41;;;;;;;;;;;;;;;;;;5042003;28;19917;-82
2022/12/01 17:47:28;;;;;;;;;;;;;;;;;;5044086;28;19971;-81
2022/12/01 17:50:14;;;;;;;;;;;;;;;;;;5043487;28;19913;-81
2022/12/01 17:53:01;;;;;;;;;;;;;;;;;;5043584;28;19916;-81
2022/12/01 17:55:47;;;;;;;;;;;;;;;;;;5045126;28;19916;-80
2022/12/01 17:58:34;;;;;;;;;;;;;;;;;;5043882;28;19920;-81
2022/12/01 18:01:20;;;;;;;;;;;;;;;;;;5050344;28;19921;-81
2022/12/01 18:04:07;;;;;;;;;;;;;;;;;;5043209;28;19920;-81
2022/12/01 18:06:53;;;;;;;;;;;;;;;;;;5044404;28;19920;-80
2022/12/01 18:09:40;;;;;;;;;;;;;;;;;;5047648;28;20398;-81
2022/12/01 18:12:26;;;;;;;;;;;;;;;;;;5043337;28;19924;-82
2022/12/01 18:15:13;;;;;;;;;;;;;;;;;;5046374;28;19916;-83
2022/12/01 18:17:59;;;;;;;;;;;;;;;;;;5033901;28;19924;-80
2022/12/01 18:20:46;;;;;;;;;;;;;;;;;;5042277;28;20000;-81
2022/12/01 18:23:32;;;;;;;;;;;;;;;;;;5047160;28;20387;-82
2022/12/01 18:26:20;;;;;;;;;;;;;;;;;;5027221;28;20386;-81
2022/12/01 18:29:07;;;;;;;;;;;;;;;;;;5024750;28;20390;-80
2022/12/01 18:31:53;;;;;;;;;;;;;;;;;;5034653;28;19921;-77
2022/12/01 18:34:40;;;;;;;;;;;;;;;;;;5039812;28;19926;-75
2022/12/01 18:37:26;;;;;;;;;;;;;;;;;;5039810;28;19924;-76
2022/12/01 18:39:52;;;;;;;;;;;;;;;;;;5038745;28;19929;-76
2022/12/01 18:42:19;;;;;;;;;;;;;;;;;;5016607;28;20342;-74
2022/12/01 18:44:48;;;;;;;;;;;;;;;;;;5022868;28;20006;-77
2022/12/01 18:47:14;;;;;;;;;;;;;;;;;;5025482;28;19921;-75
2022/12/01 18:49:40;;;;;;;;;;;;;;;;;;5007971;28;19921;-75
2022/12/01 18:52:06;;;;;;;;;;;;;;;;;;5026214;28;19963;-76
2022/12/01 18:54:51;;;;;;;;;;;;;;;;;;5045139;28;19920;-78
2022/12/01 18:57:38;;;;;;;;;;;;;;;;;;5036945;28;19917;-77
2022/12/01 19:00:24;;;;;;;;;;;;;;;;;;5036723;28;19932;-75